sensor_id;sensor_type;location;lat;lon;timestamp;P1;durP1;ratioP1;P2;durP2;ratioP2
59302;SDS011;45074;52.764;6.896;2022-09-12T00:00:12;15.45;;;13.20;;
59302;SDS011;45074;52.764;6.896;2022-09-12T00:02:39;16.65;;;13.57;;
59302;SDS011;45074;52.764;6.896;2022-09-12T00:05:05;15.20;;;13.15;;
59302;SDS011;45074;52.764;6.896;2022-09-12T00:07:31;15.57;;;12.95;;
59302;SDS011;45074;52.764;6.896;2022-09-12T00:09:58;15.32;;;13.27;;
59302;SDS011;45074;52.764;6.896;2022-09-12T00:12:23;18.20;;;14.48;;
59302;SDS011;45074;52.764;6.896;2022-09-12T00:14:49;18.02;;;14.20;;
59302;SDS011;45074;52.764;6.896;2022-09-12T00:17:14;16.83;;;14.60;;
59302;SDS011;45074;52.764;6.896;2022-09-12T00:19:40;23.02;;;14.77;;
59302;SDS011;45074;52.764;6.896;2022-09-12T00:22:06;18.45;;;14.88;;
59302;SDS011;45074;52.764;6.896;2022-09-12T00:24:31;16.85;;;15.02;;
59302;SDS011;45074;52.764;6.896;2022-09-12T00:26:58;18.23;;;14.90;;
59302;SDS011;45074;52.764;6.896;2022-09-12T00:29:23;17.08;;;14.77;;
59302;SDS011;45074;52.764;6.896;2022-09-12T00:31:49;18.10;;;15.40;;
59302;SDS011;45074;52.764;6.896;2022-09-12T00:34:15;19.45;;;15.63;;
59302;SDS011;45074;52.764;6.896;2022-09-12T00:36:40;17.80;;;15.48;;
59302;SDS011;45074;52.764;6.896;2022-09-12T00:39:06;18.05;;;15.73;;
59302;SDS011;45074;52.764;6.896;2022-09-12T00:41:37;18.23;;;16.25;;
59302;SDS011;45074;52.764;6.896;2022-09-12T00:46:54;18.17;;;15.73;;
59302;SDS011;45074;52.764;6.896;2022-09-12T00:49:28;20.48;;;16.95;;
59302;SDS011;45074;52.764;6.896;2022-09-12T00:52:02;18.52;;;16.50;;
59302;SDS011;45074;52.764;6.896;2022-09-12T00:54:35;21.35;;;17.38;;
59302;SDS011;45074;52.764;6.896;2022-09-12T00:57:24;21.35;;;17.25;;
59302;SDS011;45074;52.764;6.896;2022-09-12T00:59:58;21.15;;;17.55;;
59302;SDS011;45074;52.764;6.896;2022-09-12T01:02:32;22.48;;;17.58;;
59302;SDS011;45074;52.764;6.896;2022-09-12T01:04:58;20.38;;;18.10;;
59302;SDS011;45074;52.764;6.896;2022-09-12T01:07:24;21.45;;;17.63;;
59302;SDS011;45074;52.764;6.896;2022-09-12T01:09:50;24.55;;;18.95;;
59302;SDS011;45074;52.764;6.896;2022-09-12T01:12:16;22.08;;;18.20;;
59302;SDS011;45074;52.764;6.896;2022-09-12T01:14:42;22.63;;;19.15;;
59302;SDS011;45074;52.764;6.896;2022-09-12T01:17:10;22.10;;;17.80;;
59302;SDS011;45074;52.764;6.896;2022-09-12T01:19:56;22.25;;;18.88;;
59302;SDS011;45074;52.764;6.896;2022-09-12T01:25:30;23.02;;;19.80;;
59302;SDS011;45074;52.764;6.896;2022-09-12T01:31:10;24.50;;;19.70;;
59302;SDS011;45074;52.764;6.896;2022-09-12T01:33:41;22.98;;;19.33;;
59302;SDS011;45074;52.764;6.896;2022-09-12T01:39:13;23.13;;;18.50;;
59302;SDS011;45074;52.764;6.896;2022-09-12T01:45:04;23.30;;;19.63;;
59302;SDS011;45074;52.764;6.896;2022-09-12T01:50:07;24.40;;;19.52;;
59302;SDS011;45074;52.764;6.896;2022-09-12T01:52:47;22.50;;;18.75;;
59302;SDS011;45074;52.764;6.896;2022-09-12T01:55:16;24.88;;;20.40;;
59302;SDS011;45074;52.764;6.896;2022-09-12T01:57:57;24.20;;;20.77;;
59302;SDS011;45074;52.764;6.896;2022-09-12T02:00:45;23.60;;;20.25;;
59302;SDS011;45074;52.764;6.896;2022-09-12T02:03:26;24.20;;;20.08;;
59302;SDS011;45074;52.764;6.896;2022-09-12T02:05:56;23.98;;;20.30;;
59302;SDS011;45074;52.764;6.896;2022-09-12T02:08:29;26.08;;;20.67;;
59302;SDS011;45074;52.764;6.896;2022-09-12T02:11:00;24.25;;;19.70;;
59302;SDS011;45074;52.764;6.896;2022-09-12T02:16:25;25.95;;;20.38;;
59302;SDS011;45074;52.764;6.896;2022-09-12T02:18:59;23.98;;;20.08;;
59302;SDS011;45074;52.764;6.896;2022-09-12T02:21:31;26.88;;;20.33;;
59302;SDS011;45074;52.764;6.896;2022-09-12T02:24:01;24.60;;;20.15;;
59302;SDS011;45074;52.764;6.896;2022-09-12T02:26:33;26.10;;;21.55;;
59302;SDS011;45074;52.764;6.896;2022-09-12T02:29:02;25.00;;;20.92;;
59302;SDS011;45074;52.764;6.896;2022-09-12T02:36:42;25.45;;;21.00;;
59302;SDS011;45074;52.764;6.896;2022-09-12T02:39:30;24.60;;;20.65;;
59302;SDS011;45074;52.764;6.896;2022-09-12T02:41:58;26.27;;;21.52;;
59302;SDS011;45074;52.764;6.896;2022-09-12T02:44:26;24.90;;;20.98;;
59302;SDS011;45074;52.764;6.896;2022-09-12T02:46:54;25.67;;;21.35;;
59302;SDS011;45074;52.764;6.896;2022-09-12T02:49:23;28.55;;;21.52;;
59302;SDS011;45074;52.764;6.896;2022-09-12T02:51:49;25.75;;;21.23;;
59302;SDS011;45074;52.764;6.896;2022-09-12T02:54:15;26.50;;;21.38;;
59302;SDS011;45074;52.764;6.896;2022-09-12T02:56:43;26.77;;;21.08;;
59302;SDS011;45074;52.764;6.896;2022-09-12T02:59:10;25.85;;;21.48;;
59302;SDS011;45074;52.764;6.896;2022-09-12T03:10:10;26.40;;;20.92;;
59302;SDS011;45074;52.764;6.896;2022-09-12T03:13:08;27.58;;;21.17;;
59302;SDS011;45074;52.764;6.896;2022-09-12T03:24:19;24.80;;;20.10;;
59302;SDS011;45074;52.764;6.896;2022-09-12T03:29:46;27.15;;;21.25;;
59302;SDS011;45074;52.764;6.896;2022-09-12T03:32:12;28.17;;;21.90;;
59302;SDS011;45074;52.764;6.896;2022-09-12T03:34:38;25.70;;;21.45;;
59302;SDS011;45074;52.764;6.896;2022-09-12T03:37:05;27.20;;;22.08;;
59302;SDS011;45074;52.764;6.896;2022-09-12T03:39:31;26.85;;;22.58;;
59302;SDS011;45074;52.764;6.896;2022-09-12T03:41:57;28.80;;;22.70;;
59302;SDS011;45074;52.764;6.896;2022-09-12T03:44:23;26.70;;;22.85;;
59302;SDS011;45074;52.764;6.896;2022-09-12T03:46:49;26.35;;;21.40;;
59302;SDS011;45074;52.764;6.896;2022-09-12T03:49:15;27.30;;;22.40;;
59302;SDS011;45074;52.764;6.896;2022-09-12T03:51:41;29.00;;;23.15;;
59302;SDS011;45074;52.764;6.896;2022-09-12T03:54:08;27.75;;;23.25;;
59302;SDS011;45074;52.764;6.896;2022-09-12T03:56:35;26.58;;;22.45;;
59302;SDS011;45074;52.764;6.896;2022-09-12T03:59:03;29.80;;;23.33;;
59302;SDS011;45074;52.764;6.896;2022-09-12T04:01:30;30.08;;;23.38;;
59302;SDS011;45074;52.764;6.896;2022-09-12T04:03:56;31.52;;;24.00;;
59302;SDS011;45074;52.764;6.896;2022-09-12T04:06:22;30.58;;;23.98;;
59302;SDS011;45074;52.764;6.896;2022-09-12T04:08:49;29.48;;;22.77;;
59302;SDS011;45074;52.764;6.896;2022-09-12T04:11:16;30.73;;;24.52;;
59302;SDS011;45074;52.764;6.896;2022-09-12T04:13:43;30.00;;;22.98;;
59302;SDS011;45074;52.764;6.896;2022-09-12T04:16:10;30.17;;;23.60;;
59302;SDS011;45074;52.764;6.896;2022-09-12T04:18:37;30.15;;;23.88;;
59302;SDS011;45074;52.764;6.896;2022-09-12T04:21:04;29.10;;;23.38;;
59302;SDS011;45074;52.764;6.896;2022-09-12T04:23:34;31.00;;;24.45;;
59302;SDS011;45074;52.764;6.896;2022-09-12T04:26:01;30.75;;;24.15;;
59302;SDS011;45074;52.764;6.896;2022-09-12T04:28:30;29.88;;;23.30;;
59302;SDS011;45074;52.764;6.896;2022-09-12T04:31:00;28.23;;;22.77;;
59302;SDS011;45074;52.764;6.896;2022-09-12T04:35:53;32.45;;;24.15;;
59302;SDS011;45074;52.764;6.896;2022-09-12T04:38:19;29.58;;;23.50;;
59302;SDS011;45074;52.764;6.896;2022-09-12T04:40:45;30.95;;;24.05;;
59302;SDS011;45074;52.764;6.896;2022-09-12T04:43:11;30.40;;;23.45;;
59302;SDS011;45074;52.764;6.896;2022-09-12T04:45:37;28.83;;;22.52;;
59302;SDS011;45074;52.764;6.896;2022-09-12T04:48:03;30.50;;;23.83;;
59302;SDS011;45074;52.764;6.896;2022-09-12T04:50:29;28.45;;;23.08;;
59302;SDS011;45074;52.764;6.896;2022-09-12T04:52:55;29.55;;;22.83;;
59302;SDS011;45074;52.764;6.896;2022-09-12T04:55:21;28.50;;;22.40;;
59302;SDS011;45074;52.764;6.896;2022-09-12T04:57:49;30.55;;;23.67;;
59302;SDS011;45074;52.764;6.896;2022-09-12T05:00:16;29.17;;;22.92;;
59302;SDS011;45074;52.764;6.896;2022-09-12T05:02:41;31.33;;;22.60;;
59302;SDS011;45074;52.764;6.896;2022-09-12T05:05:08;29.90;;;23.80;;
59302;SDS011;45074;52.764;6.896;2022-09-12T05:07:34;31.58;;;23.80;;
59302;SDS011;45074;52.764;6.896;2022-09-12T05:10:01;32.15;;;24.73;;
59302;SDS011;45074;52.764;6.896;2022-09-12T05:12:28;33.22;;;24.80;;
59302;SDS011;45074;52.764;6.896;2022-09-12T05:14:55;34.47;;;25.42;;
59302;SDS011;45074;52.764;6.896;2022-09-12T05:17:21;37.33;;;27.75;;
59302;SDS011;45074;52.764;6.896;2022-09-12T05:19:47;35.30;;;26.92;;
59302;SDS011;45074;52.764;6.896;2022-09-12T05:22:13;35.05;;;26.60;;
59302;SDS011;45074;52.764;6.896;2022-09-12T05:24:39;38.63;;;27.77;;
59302;SDS011;45074;52.764;6.896;2022-09-12T05:27:08;35.67;;;26.65;;
59302;SDS011;45074;52.764;6.896;2022-09-12T05:29:35;36.67;;;27.30;;
59302;SDS011;45074;52.764;6.896;2022-09-12T05:32:01;39.03;;;26.60;;
59302;SDS011;45074;52.764;6.896;2022-09-12T05:34:27;37.65;;;28.10;;
59302;SDS011;45074;52.764;6.896;2022-09-12T05:36:53;38.83;;;27.08;;
59302;SDS011;45074;52.764;6.896;2022-09-12T05:39:19;39.90;;;27.58;;
59302;SDS011;45074;52.764;6.896;2022-09-12T05:41:46;37.90;;;28.20;;
59302;SDS011;45074;52.764;6.896;2022-09-12T05:44:12;38.33;;;28.00;;
59302;SDS011;45074;52.764;6.896;2022-09-12T05:46:42;39.78;;;27.85;;
59302;SDS011;45074;52.764;6.896;2022-09-12T05:49:10;39.65;;;28.95;;
59302;SDS011;45074;52.764;6.896;2022-09-12T05:51:37;41.58;;;29.27;;
59302;SDS011;45074;52.764;6.896;2022-09-12T05:54:06;40.83;;;29.00;;
59302;SDS011;45074;52.764;6.896;2022-09-12T05:56:37;44.22;;;30.80;;
59302;SDS011;45074;52.764;6.896;2022-09-12T05:59:11;42.05;;;29.65;;
59302;SDS011;45074;52.764;6.896;2022-09-12T06:01:39;41.55;;;29.02;;
59302;SDS011;45074;52.764;6.896;2022-09-12T06:04:06;40.63;;;29.52;;
59302;SDS011;45074;52.764;6.896;2022-09-12T06:06:34;44.17;;;29.73;;
59302;SDS011;45074;52.764;6.896;2022-09-12T06:09:02;42.70;;;29.63;;
59302;SDS011;45074;52.764;6.896;2022-09-12T06:11:30;42.88;;;29.92;;
59302;SDS011;45074;52.764;6.896;2022-09-12T06:13:57;41.67;;;29.30;;
59302;SDS011;45074;52.764;6.896;2022-09-12T06:16:26;42.40;;;29.25;;
59302;SDS011;45074;52.764;6.896;2022-09-12T06:18:54;43.05;;;28.95;;
59302;SDS011;45074;52.764;6.896;2022-09-12T06:21:22;43.75;;;29.40;;
59302;SDS011;45074;52.764;6.896;2022-09-12T06:23:48;41.88;;;28.88;;
59302;SDS011;45074;52.764;6.896;2022-09-12T06:26:15;43.05;;;29.15;;
59302;SDS011;45074;52.764;6.896;2022-09-12T06:28:45;42.10;;;29.80;;
59302;SDS011;45074;52.764;6.896;2022-09-12T06:31:12;40.35;;;29.15;;
59302;SDS011;45074;52.764;6.896;2022-09-12T06:33:40;38.65;;;28.63;;
59302;SDS011;45074;52.764;6.896;2022-09-12T06:36:08;40.95;;;28.92;;
59302;SDS011;45074;52.764;6.896;2022-09-12T06:38:36;39.28;;;28.73;;
59302;SDS011;45074;52.764;6.896;2022-09-12T06:41:05;39.15;;;29.55;;
59302;SDS011;45074;52.764;6.896;2022-09-12T06:43:33;42.00;;;29.90;;
59302;SDS011;45074;52.764;6.896;2022-09-12T06:45:59;39.05;;;28.90;;
59302;SDS011;45074;52.764;6.896;2022-09-12T06:48:26;41.40;;;29.80;;
59302;SDS011;45074;52.764;6.896;2022-09-12T06:53:28;40.88;;;29.55;;
59302;SDS011;45074;52.764;6.896;2022-09-12T06:55:58;39.30;;;28.63;;
59302;SDS011;45074;52.764;6.896;2022-09-12T06:58:26;40.30;;;29.88;;
59302;SDS011;45074;52.764;6.896;2022-09-12T07:00:59;56.92;;;32.72;;
59302;SDS011;45074;52.764;6.896;2022-09-12T07:03:29;62.47;;;32.05;;
59302;SDS011;45074;52.764;6.896;2022-09-12T07:05:56;46.03;;;29.52;;
59302;SDS011;45074;52.764;6.896;2022-09-12T07:08:22;39.08;;;28.17;;
59302;SDS011;45074;52.764;6.896;2022-09-12T07:10:48;42.88;;;29.45;;
59302;SDS011;45074;52.764;6.896;2022-09-12T07:13:14;38.60;;;27.55;;
59302;SDS011;45074;52.764;6.896;2022-09-12T07:15:40;35.60;;;26.80;;
59302;SDS011;45074;52.764;6.896;2022-09-12T07:18:07;37.30;;;27.08;;
59302;SDS011;45074;52.764;6.896;2022-09-12T07:20:34;34.50;;;25.98;;
59302;SDS011;45074;52.764;6.896;2022-09-12T07:23:03;34.67;;;26.17;;
59302;SDS011;45074;52.764;6.896;2022-09-12T07:25:29;34.00;;;25.20;;
59302;SDS011;45074;52.764;6.896;2022-09-12T07:27:55;33.20;;;25.35;;
59302;SDS011;45074;52.764;6.896;2022-09-12T07:30:21;32.42;;;24.58;;
59302;SDS011;45074;52.764;6.896;2022-09-12T07:32:50;31.00;;;23.48;;
59302;SDS011;45074;52.764;6.896;2022-09-12T07:35:17;31.40;;;22.45;;
59302;SDS011;45074;52.764;6.896;2022-09-12T07:37:44;28.92;;;21.52;;
59302;SDS011;45074;52.764;6.896;2022-09-12T07:40:10;28.10;;;21.33;;
59302;SDS011;45074;52.764;6.896;2022-09-12T07:42:36;26.95;;;21.13;;
59302;SDS011;45074;52.764;6.896;2022-09-12T07:45:02;29.73;;;22.05;;
59302;SDS011;45074;52.764;6.896;2022-09-12T07:47:28;27.13;;;21.35;;
59302;SDS011;45074;52.764;6.896;2022-09-12T07:49:53;28.63;;;21.90;;
59302;SDS011;45074;52.764;6.896;2022-09-12T07:52:20;25.80;;;20.80;;
59302;SDS011;45074;52.764;6.896;2022-09-12T07:54:47;27.58;;;20.35;;
59302;SDS011;45074;52.764;6.896;2022-09-12T07:57:13;27.35;;;19.35;;
59302;SDS011;45074;52.764;6.896;2022-09-12T07:59:39;25.23;;;19.08;;
59302;SDS011;45074;52.764;6.896;2022-09-12T08:02:10;27.65;;;19.83;;
59302;SDS011;45074;52.764;6.896;2022-09-12T08:04:38;25.42;;;19.48;;
59302;SDS011;45074;52.764;6.896;2022-09-12T08:07:04;24.67;;;19.17;;
59302;SDS011;45074;52.764;6.896;2022-09-12T08:09:30;23.48;;;18.42;;
59302;SDS011;45074;52.764;6.896;2022-09-12T08:11:56;23.55;;;18.88;;
59302;SDS011;45074;52.764;6.896;2022-09-12T08:14:23;24.17;;;19.13;;
59302;SDS011;45074;52.764;6.896;2022-09-12T08:16:49;23.83;;;18.20;;
59302;SDS011;45074;52.764;6.896;2022-09-12T08:19:15;23.33;;;18.50;;
59302;SDS011;45074;52.764;6.896;2022-09-12T08:21:41;23.98;;;17.88;;
59302;SDS011;45074;52.764;6.896;2022-09-12T08:24:06;22.90;;;17.88;;
59302;SDS011;45074;52.764;6.896;2022-09-12T08:26:33;24.95;;;17.98;;
59302;SDS011;45074;52.764;6.896;2022-09-12T08:28:59;24.15;;;18.60;;
59302;SDS011;45074;52.764;6.896;2022-09-12T08:31:25;23.75;;;18.20;;
59302;SDS011;45074;52.764;6.896;2022-09-12T08:33:55;24.88;;;18.42;;
59302;SDS011;45074;52.764;6.896;2022-09-12T08:36:22;24.73;;;18.20;;
59302;SDS011;45074;52.764;6.896;2022-09-12T08:38:52;22.75;;;18.30;;
59302;SDS011;45074;52.764;6.896;2022-09-12T08:43:55;25.13;;;19.05;;
59302;SDS011;45074;52.764;6.896;2022-09-12T08:48:58;27.63;;;19.98;;
59302;SDS011;45074;52.764;6.896;2022-09-12T08:51:26;26.92;;;20.20;;
59302;SDS011;45074;52.764;6.896;2022-09-12T08:53:53;26.17;;;20.60;;
59302;SDS011;45074;52.764;6.896;2022-09-12T08:56:21;28.17;;;19.67;;
59302;SDS011;45074;52.764;6.896;2022-09-12T08:58:47;27.20;;;19.48;;
59302;SDS011;45074;52.764;6.896;2022-09-12T09:14:55;31.42;;;21.70;;
59302;SDS011;45074;52.764;6.896;2022-09-12T09:17:42;29.75;;;21.55;;
59302;SDS011;45074;52.764;6.896;2022-09-12T09:23:07;30.90;;;21.57;;
59302;SDS011;45074;52.764;6.896;2022-09-12T09:31:15;32.13;;;23.42;;
59302;SDS011;45074;52.764;6.896;2022-09-12T09:33:43;32.58;;;23.42;;
59302;SDS011;45074;52.764;6.896;2022-09-12T09:36:29;34.60;;;25.63;;
59302;SDS011;45074;52.764;6.896;2022-09-12T09:44:52;37.03;;;24.88;;
59302;SDS011;45074;52.764;6.896;2022-09-12T09:47:20;34.22;;;26.08;;
59302;SDS011;45074;52.764;6.896;2022-09-12T09:49:45;36.55;;;25.40;;
59302;SDS011;45074;52.764;6.896;2022-09-12T09:52:13;36.53;;;25.08;;
59302;SDS011;45074;52.764;6.896;2022-09-12T09:54:49;36.80;;;26.85;;
59302;SDS011;45074;52.764;6.896;2022-09-12T10:03:25;37.80;;;26.65;;
59302;SDS011;45074;52.764;6.896;2022-09-12T10:05:47;38.70;;;27.02;;
59302;SDS011;45074;52.764;6.896;2022-09-12T10:08:27;34.78;;;25.42;;
59302;SDS011;45074;52.764;6.896;2022-09-12T10:11:08;34.78;;;25.70;;
59302;SDS011;45074;52.764;6.896;2022-09-12T10:18:55;38.28;;;25.35;;
59302;SDS011;45074;52.764;6.896;2022-09-12T10:26:42;32.40;;;23.77;;
59302;SDS011;45074;52.764;6.896;2022-09-12T10:29:20;33.83;;;23.50;;
59302;SDS011;45074;52.764;6.896;2022-09-12T10:31:55;32.47;;;22.92;;
59302;SDS011;45074;52.764;6.896;2022-09-12T10:34:25;31.73;;;23.73;;
59302;SDS011;45074;52.764;6.896;2022-09-12T10:37:05;33.47;;;22.25;;
59302;SDS011;45074;52.764;6.896;2022-09-12T10:42:33;31.42;;;22.85;;
59302;SDS011;45074;52.764;6.896;2022-09-12T10:45:18;29.92;;;22.38;;
59302;SDS011;45074;52.764;6.896;2022-09-12T10:47:45;30.30;;;22.92;;
59302;SDS011;45074;52.764;6.896;2022-09-12T10:53:20;28.40;;;20.92;;
59302;SDS011;45074;52.764;6.896;2022-09-12T10:55:58;25.38;;;19.20;;
59302;SDS011;45074;52.764;6.896;2022-09-12T11:06:32;24.02;;;17.73;;
59302;SDS011;45074;52.764;6.896;2022-09-12T11:09:34;24.67;;;18.02;;
59302;SDS011;45074;52.764;6.896;2022-09-12T11:12:18;24.42;;;18.60;;
59302;SDS011;45074;52.764;6.896;2022-09-12T11:14:55;23.88;;;17.35;;
59302;SDS011;45074;52.764;6.896;2022-09-12T11:20:31;23.25;;;16.83;;
59302;SDS011;45074;52.764;6.896;2022-09-12T11:33:49;25.35;;;18.27;;
59302;SDS011;45074;52.764;6.896;2022-09-12T11:37:03;22.02;;;16.38;;
59302;SDS011;45074;52.764;6.896;2022-09-12T11:41:38;25.05;;;18.63;;
59302;SDS011;45074;52.764;6.896;2022-09-12T11:44:11;23.00;;;17.50;;
59302;SDS011;45074;52.764;6.896;2022-09-12T11:46:43;23.23;;;16.95;;
59302;SDS011;45074;52.764;6.896;2022-09-12T11:59:39;15.15;;;9.52;;
59302;SDS011;45074;52.764;6.896;2022-09-12T12:02:16;14.88;;;9.93;;
59302;SDS011;45074;52.764;6.896;2022-09-12T12:05:14;12.70;;;10.35;;
59302;SDS011;45074;52.764;6.896;2022-09-12T12:07:54;12.40;;;8.43;;
59302;SDS011;45074;52.764;6.896;2022-09-12T12:10:23;14.52;;;9.27;;
59302;SDS011;45074;52.764;6.896;2022-09-12T12:13:02;13.87;;;8.67;;
59302;SDS011;45074;52.764;6.896;2022-09-12T12:18:52;13.25;;;9.30;;
59302;SDS011;45074;52.764;6.896;2022-09-12T12:29:03;15.05;;;10.65;;
59302;SDS011;45074;52.764;6.896;2022-09-12T12:31:47;15.45;;;11.23;;
59302;SDS011;45074;52.764;6.896;2022-09-12T12:34:28;14.43;;;11.10;;
59302;SDS011;45074;52.764;6.896;2022-09-12T12:36:57;15.63;;;12.32;;
59302;SDS011;45074;52.764;6.896;2022-09-12T12:44:58;13.40;;;9.65;;
59302;SDS011;45074;52.764;6.896;2022-09-12T12:52:44;11.13;;;8.02;;
59302;SDS011;45074;52.764;6.896;2022-09-12T12:55:13;12.20;;;8.27;;
59302;SDS011;45074;52.764;6.896;2022-09-12T12:57:47;10.20;;;7.30;;
59302;SDS011;45074;52.764;6.896;2022-09-12T13:02:55;10.45;;;5.93;;
59302;SDS011;45074;52.764;6.896;2022-09-12T13:05:23;8.57;;;6.00;;
59302;SDS011;45074;52.764;6.896;2022-09-12T13:08:02;7.88;;;6.18;;
59302;SDS011;45074;52.764;6.896;2022-09-12T13:10:31;8.65;;;6.60;;
59302;SDS011;45074;52.764;6.896;2022-09-12T13:12:58;9.75;;;7.35;;
59302;SDS011;45074;52.764;6.896;2022-09-12T13:17:56;9.73;;;6.68;;
59302;SDS011;45074;52.764;6.896;2022-09-12T13:20:25;10.13;;;7.63;;
59302;SDS011;45074;52.764;6.896;2022-09-12T13:22:53;9.82;;;7.45;;
59302;SDS011;45074;52.764;6.896;2022-09-12T13:25:21;10.35;;;7.30;;
59302;SDS011;45074;52.764;6.896;2022-09-12T13:27:57;9.55;;;7.30;;
59302;SDS011;45074;52.764;6.896;2022-09-12T13:30:24;11.02;;;8.15;;
59302;SDS011;45074;52.764;6.896;2022-09-12T13:32:51;9.60;;;6.65;;
59302;SDS011;45074;52.764;6.896;2022-09-12T13:40:25;12.02;;;7.07;;
59302;SDS011;45074;52.764;6.896;2022-09-12T13:43:02;9.43;;;6.90;;
59302;SDS011;45074;52.764;6.896;2022-09-12T13:45:32;9.60;;;7.47;;
59302;SDS011;45074;52.764;6.896;2022-09-12T13:47:59;9.00;;;6.13;;
59302;SDS011;45074;52.764;6.896;2022-09-12T13:50:27;9.02;;;7.13;;
59302;SDS011;45074;52.764;6.896;2022-09-12T13:52:59;9.95;;;6.20;;
59302;SDS011;45074;52.764;6.896;2022-09-12T13:55:33;9.43;;;6.85;;
59302;SDS011;45074;52.764;6.896;2022-09-12T13:58:01;9.63;;;7.05;;
59302;SDS011;45074;52.764;6.896;2022-09-12T14:00:28;9.93;;;7.47;;
59302;SDS011;45074;52.764;6.896;2022-09-12T14:02:56;9.68;;;7.47;;
59302;SDS011;45074;52.764;6.896;2022-09-12T14:05:42;9.85;;;6.70;;
59302;SDS011;45074;52.764;6.896;2022-09-12T14:08:10;11.20;;;5.60;;
59302;SDS011;45074;52.764;6.896;2022-09-12T14:10:38;9.33;;;6.30;;
59302;SDS011;45074;52.764;6.896;2022-09-12T14:13:09;8.70;;;6.13;;
59302;SDS011;45074;52.764;6.896;2022-09-12T14:15:36;8.57;;;5.80;;
59302;SDS011;45074;52.764;6.896;2022-09-12T14:18:03;8.88;;;5.93;;
59302;SDS011;45074;52.764;6.896;2022-09-12T14:20:31;7.32;;;4.75;;
59302;SDS011;45074;52.764;6.896;2022-09-12T14:23:00;8.38;;;5.00;;
59302;SDS011;45074;52.764;6.896;2022-09-12T14:25:28;6.90;;;4.32;;
59302;SDS011;45074;52.764;6.896;2022-09-12T14:27:57;6.68;;;4.28;;
59302;SDS011;45074;52.764;6.896;2022-09-12T14:30:24;6.65;;;4.13;;
59302;SDS011;45074;52.764;6.896;2022-09-12T14:36:09;7.75;;;4.38;;
59302;SDS011;45074;52.764;6.896;2022-09-12T14:38:33;8.77;;;4.35;;
59302;SDS011;45074;52.764;6.896;2022-09-12T14:41:01;6.13;;;4.05;;
59302;SDS011;45074;52.764;6.896;2022-09-12T14:43:32;6.95;;;4.15;;
59302;SDS011;45074;52.764;6.896;2022-09-12T14:48:42;7.38;;;3.90;;
59302;SDS011;45074;52.764;6.896;2022-09-12T14:51:15;5.57;;;3.88;;
59302;SDS011;45074;52.764;6.896;2022-09-12T14:53:46;5.57;;;3.95;;
59302;SDS011;45074;52.764;6.896;2022-09-12T14:56:13;6.82;;;3.75;;
59302;SDS011;45074;52.764;6.896;2022-09-12T14:58:39;5.30;;;3.70;;
59302;SDS011;45074;52.764;6.896;2022-09-12T15:06:31;7.32;;;3.53;;
59302;SDS011;45074;52.764;6.896;2022-09-12T15:08:58;4.95;;;3.20;;
59302;SDS011;45074;52.764;6.896;2022-09-12T15:11:25;5.57;;;3.30;;
59302;SDS011;45074;52.764;6.896;2022-09-12T15:13:51;5.28;;;3.20;;
59302;SDS011;45074;52.764;6.896;2022-09-12T15:16:18;5.45;;;3.00;;
59302;SDS011;45074;52.764;6.896;2022-09-12T15:18:44;4.47;;;2.78;;
59302;SDS011;45074;52.764;6.896;2022-09-12T15:21:11;5.97;;;3.10;;
59302;SDS011;45074;52.764;6.896;2022-09-12T15:23:40;6.40;;;3.72;;
59302;SDS011;45074;52.764;6.896;2022-09-12T15:26:08;5.13;;;3.20;;
59302;SDS011;45074;52.764;6.896;2022-09-12T15:28:36;5.45;;;3.05;;
59302;SDS011;45074;52.764;6.896;2022-09-12T15:31:14;7.93;;;3.50;;
59302;SDS011;45074;52.764;6.896;2022-09-12T15:33:40;5.13;;;3.70;;
59302;SDS011;45074;52.764;6.896;2022-09-12T15:36:11;6.03;;;3.40;;
59302;SDS011;45074;52.764;6.896;2022-09-12T15:38:42;5.70;;;3.05;;
59302;SDS011;45074;52.764;6.896;2022-09-12T15:41:13;4.63;;;3.13;;
59302;SDS011;45074;52.764;6.896;2022-09-12T15:43:43;5.10;;;3.10;;
59302;SDS011;45074;52.764;6.896;2022-09-12T15:46:10;5.88;;;3.30;;
59302;SDS011;45074;52.764;6.896;2022-09-12T15:48:37;4.88;;;3.05;;
59302;SDS011;45074;52.764;6.896;2022-09-12T15:51:03;5.22;;;3.58;;
59302;SDS011;45074;52.764;6.896;2022-09-12T15:53:30;5.85;;;3.58;;
59302;SDS011;45074;52.764;6.896;2022-09-12T15:55:56;5.57;;;3.33;;
59302;SDS011;45074;52.764;6.896;2022-09-12T15:58:22;5.30;;;3.50;;
59302;SDS011;45074;52.764;6.896;2022-09-12T16:00:48;4.78;;;3.17;;
59302;SDS011;45074;52.764;6.896;2022-09-12T16:03:16;4.88;;;3.22;;
59302;SDS011;45074;52.764;6.896;2022-09-12T16:05:45;5.70;;;3.30;;
59302;SDS011;45074;52.764;6.896;2022-09-12T16:08:11;5.07;;;3.22;;
59302;SDS011;45074;52.764;6.896;2022-09-12T16:10:37;7.07;;;3.25;;
59302;SDS011;45074;52.764;6.896;2022-09-12T16:13:03;5.82;;;3.25;;
59302;SDS011;45074;52.764;6.896;2022-09-12T16:15:29;5.22;;;3.42;;
59302;SDS011;45074;52.764;6.896;2022-09-12T16:17:55;5.30;;;3.28;;
59302;SDS011;45074;52.764;6.896;2022-09-12T16:20:21;4.50;;;3.00;;
59302;SDS011;45074;52.764;6.896;2022-09-12T16:22:48;5.07;;;3.00;;
59302;SDS011;45074;52.764;6.896;2022-09-12T16:25:14;4.10;;;3.00;;
59302;SDS011;45074;52.764;6.896;2022-09-12T16:27:40;6.13;;;3.22;;
59302;SDS011;45074;52.764;6.896;2022-09-12T16:30:07;4.95;;;3.08;;
59302;SDS011;45074;52.764;6.896;2022-09-12T16:32:33;4.32;;;3.30;;
59302;SDS011;45074;52.764;6.896;2022-09-12T16:34:59;6.00;;;3.10;;
59302;SDS011;45074;52.764;6.896;2022-09-12T16:37:26;4.50;;;3.17;;
59302;SDS011;45074;52.764;6.896;2022-09-12T16:39:52;6.25;;;3.30;;
59302;SDS011;45074;52.764;6.896;2022-09-12T16:42:18;4.70;;;3.30;;
59302;SDS011;45074;52.764;6.896;2022-09-12T16:44:45;5.25;;;3.28;;
59302;SDS011;45074;52.764;6.896;2022-09-12T16:47:11;4.95;;;3.28;;
59302;SDS011;45074;52.764;6.896;2022-09-12T16:49:37;5.53;;;3.10;;
59302;SDS011;45074;52.764;6.896;2022-09-12T16:52:03;4.38;;;3.25;;
59302;SDS011;45074;52.764;6.896;2022-09-12T16:54:29;5.07;;;3.28;;
59302;SDS011;45074;52.764;6.896;2022-09-12T16:56:55;6.82;;;3.55;;
59302;SDS011;45074;52.764;6.896;2022-09-12T16:59:21;6.15;;;3.55;;
59302;SDS011;45074;52.764;6.896;2022-09-12T17:01:48;5.85;;;3.40;;
59302;SDS011;45074;52.764;6.896;2022-09-12T17:04:14;5.80;;;3.42;;
59302;SDS011;45074;52.764;6.896;2022-09-12T17:06:40;5.13;;;3.60;;
59302;SDS011;45074;52.764;6.896;2022-09-12T17:09:06;5.45;;;3.17;;
59302;SDS011;45074;52.764;6.896;2022-09-12T17:11:34;8.02;;;3.72;;
59302;SDS011;45074;52.764;6.896;2022-09-12T17:14:01;7.03;;;3.33;;
59302;SDS011;45074;52.764;6.896;2022-09-12T17:16:30;7.30;;;3.70;;
59302;SDS011;45074;52.764;6.896;2022-09-12T17:18:56;7.13;;;3.83;;
59302;SDS011;45074;52.764;6.896;2022-09-12T17:21:22;6.53;;;3.45;;
59302;SDS011;45074;52.764;6.896;2022-09-12T17:23:48;6.30;;;3.92;;
59302;SDS011;45074;52.764;6.896;2022-09-12T17:26:15;5.95;;;3.42;;
59302;SDS011;45074;52.764;6.896;2022-09-12T17:28:41;6.70;;;3.70;;
59302;SDS011;45074;52.764;6.896;2022-09-12T17:31:08;5.65;;;3.58;;
59302;SDS011;45074;52.764;6.896;2022-09-12T17:33:36;6.95;;;3.40;;
59302;SDS011;45074;52.764;6.896;2022-09-12T17:36:04;6.72;;;3.85;;
59302;SDS011;45074;52.764;6.896;2022-09-12T17:38:35;6.38;;;4.10;;
59302;SDS011;45074;52.764;6.896;2022-09-12T17:43:31;8.43;;;3.90;;
59302;SDS011;45074;52.764;6.896;2022-09-12T17:45:57;11.18;;;4.00;;